Observation data for Lamesa on 08/10/2018      Previous  Date  Next       Current Mesonet Observations  Soil Data  Daily Summary Page  Observations in Plain Language
KLES 100505Z 11003KT 23/19 A3015 RMK A01 T02300190  RH  083%=      5-min Rain = 0
KLES 100510Z 13003KT 23/19 A3015 RMK A01 T02300191  RH  083%=      5-min Rain = 0
KLES 100515Z 14004KT 23/19 A3015 RMK A01 T02280190  RH  083%=      5-min Rain = 0
KLES 100520Z 14005KT 23/19 A3015 RMK A01 T02280189  RH  083%=      5-min Rain = 0
KLES 100525Z 13005KT 23/19 A3015 RMK A01 T02300188  RH  082%=      5-min Rain = 0
KLES 100530Z 13004KT 23/19 A3015 RMK A01 T02310189  RH  082%=      5-min Rain = 0
KLES 100535Z 17005KT 23/19 A3014 RMK A01 T02290189  RH  083%=      5-min Rain = 0
KLES 100540Z 18005KT 23/19 A3014 RMK A01 T02250190  RH  085%=      5-min Rain = 0
KLES 100545Z 18005KT 22/19 A3014 RMK A01 T02230189  RH  086%=      5-min Rain = 0
KLES 100550Z 16005KT 22/19 A3014 RMK A01 T02220189  RH  086%=      5-min Rain = 0
KLES 100555Z 15006KT 22/19 A3014 RMK A01 T02230189  RH  086%=      5-min Rain = 0
KLES 100600Z 16005KT 23/19 A3014 RMK A01 T02250187  RH  083%=      5-min Rain = 0
KLES 100605Z 16006KT 23/19 A3015 RMK A01 T02260188  RH  084%=      5-min Rain = 0
KLES 100610Z 16006KT 23/19 A3015 RMK A01 T02260187  RH  083%=      5-min Rain = 0
KLES 100615Z 17006KT 23/18 A3015 RMK A01 T02260184  RH  081%=      5-min Rain = 0
KLES 100620Z 17005KT 23/18 A3015 RMK A01 T02250184  RH  082%=      5-min Rain = 0
KLES 100625Z 17005KT 22/18 A3015 RMK A01 T02240184  RH  083%=      5-min Rain = 0
KLES 100630Z 17005KT 22/18 A3015 RMK A01 T02220183  RH  083%=      5-min Rain = 0
KLES 100635Z 17006KT 22/18 A3015 RMK A01 T02210183  RH  083%=      5-min Rain = 0
KLES 100640Z 17006KT 22/18 A3015 RMK A01 T02210182  RH  083%=      5-min Rain = 0
KLES 100645Z 18006KT 22/18 A3014 RMK A01 T02200183  RH  084%=      5-min Rain = 0
KLES 100650Z 18005KT 22/18 A3014 RMK A01 T02190183  RH  084%=      5-min Rain = 0
KLES 100655Z 20004KT 22/19 A3015 RMK A01 T02190185  RH  086%=      5-min Rain = 0
KLES 100700Z 20003KT 22/19 A3015 RMK A01 T02190186  RH  086%=      5-min Rain = 0
KLES 100705Z 19003KT 22/19 A3014 RMK A01 T02190186  RH  087%=      5-min Rain = 0
KLES 100710Z 19002KT 22/19 A3014 RMK A01 T02190187  RH  087%=      5-min Rain = 0
KLES 100715Z 18002KT 22/19 A3014 RMK A01 T02190187  RH  087%=      5-min Rain = 0
KLES 100720Z 17001KT 22/19 A3013 RMK A01 T02180187  RH  087%=      5-min Rain = 0
KLES 100725Z 19000KT 22/19 A3013 RMK A01 T02180187  RH  087%=      5-min Rain = 0
KLES 100730Z 18001KT 22/19 A3013 RMK A01 T02200189  RH  088%=      5-min Rain = 0
KLES 100735Z 15001KT 22/19 A3012 RMK A01 T02200190  RH  088%=      5-min Rain = 0
KLES 100740Z 22002KT 22/19 A3012 RMK A01 T02190189  RH  088%=      5-min Rain = 0
KLES 100745Z 25002KT 22/19 A3012 RMK A01 T02180187  RH  087%=      5-min Rain = 0
KLES 100750Z 24001KT 22/19 A3012 RMK A01 T02200187  RH  086%=      5-min Rain = 0
KLES 100755Z 23001KT 22/19 A3012 RMK A01 T02220188  RH  086%=      5-min Rain = 0
KLES 100800Z 23000KT 22/19 A3012 RMK A01 T02210189  RH  086%=      5-min Rain = 0
KLES 100805Z 00000KT 22/19 A3012 RMK A01 T02210190  RH  088%=      5-min Rain = 0
KLES 100810Z 13001KT 22/19 A3012 RMK A01 T02190190  RH  088%=      5-min Rain = 0
KLES 100815Z 13002KT 22/19 A3012 RMK A01 T02170190  RH  089%=      5-min Rain = 0
KLES 100820Z 14001KT 22/19 A3011 RMK A01 T02170190  RH  089%=      5-min Rain = 0
KLES 100825Z 14001KT 22/19 A3011 RMK A01 T02170190  RH  090%=      5-min Rain = 0
KLES 100830Z 14001KT 22/19 A3011 RMK A01 T02160189  RH  089%=      5-min Rain = 0
KLES 100835Z 12001KT 22/19 A3011 RMK A01 T02160189  RH  089%=      5-min Rain = 0
KLES 100840Z 12002KT 22/19 A3011 RMK A01 T02170189  RH  089%=      5-min Rain = 0
KLES 100845Z 13001KT 22/19 A3011 RMK A01 T02170189  RH  089%=      5-min Rain = 0
KLES 100850Z 13001KT 22/19 A301 RMK A01 T02160188  RH  089%=      5-min Rain = 0
KLES 100855Z 14001KT 22/19 A301 RMK A01 T02150187  RH  089%=      5-min Rain = 0
KLES 100900Z 09001KT 22/19 A3011 RMK A01 T02150185  RH  088%=      5-min Rain = 0
KLES 100905Z 00000KT 22/19 A3011 RMK A01 T02160186  RH  087%=      5-min Rain = 0
KLES 100910Z 17000KT 22/19 A3011 RMK A01 T02160186  RH  088%=      5-min Rain = 0
KLES 100915Z 18001KT 22/19 A3011 RMK A01 T02160187  RH  088%=      5-min Rain = 0
KLES 100920Z 18001KT 22/19 A3011 RMK A01 T02160187  RH  088%=      5-min Rain = 0
KLES 100925Z 18001KT 22/19 A3011 RMK A01 T02150187  RH  089%=      5-min Rain = 0
KLES 100930Z 16001KT 22/19 A3011 RMK A01 T02160189  RH  089%=      5-min Rain = 0
KLES 100935Z 15001KT 22/19 A3011 RMK A01 T02160189  RH  089%=      5-min Rain = 0
KLES 100940Z 15002KT 22/19 A3011 RMK A01 T02160189  RH  089%=      5-min Rain = 0
KLES 100945Z 17002KT 22/19 A3011 RMK A01 T02170191  RH  090%=      5-min Rain = 0
KLES 100950Z 18003KT 22/19 A3011 RMK A01 T02170189  RH  089%=      5-min Rain = 0
KLES 100955Z 16003KT 22/19 A3011 RMK A01 T02160187  RH  088%=      5-min Rain = 0
KLES 101000Z 12001KT 22/19 A3011 RMK A01 T02180188  RH  088%=      5-min Rain = 0
KLES 101005Z 13002KT 22/19 A3011 RMK A01 T02190189  RH  088%=      5-min Rain = 0
KLES 101010Z 16003KT 22/19 A3011 RMK A01 T02180188  RH  088%=      5-min Rain = 0
KLES 101015Z 18003KT 22/19 A301 RMK A01 T02180188  RH  088%=      5-min Rain = 0
KLES 101020Z 17002KT 22/19 A301 RMK A01 T02160186  RH  087%=      5-min Rain = 0
KLES 101025Z 17000KT 22/19 A301 RMK A01 T02170185  RH  087%=      5-min Rain = 0
KLES 101030Z 06000KT 22/19 A301 RMK A01 T02180187  RH  087%=      5-min Rain = 0
KLES 101035Z 00000KT 22/19 A301 RMK A01 T02180185  RH  086%=      5-min Rain = 0
KLES 101040Z 31000KT 22/19 A301 RMK A01 T02180186  RH  086%=      5-min Rain = 0
KLES 101045Z 29001KT 22/19 A301 RMK A01 T02190188  RH  087%=      5-min Rain = 0
KLES 101050Z 29002KT 22/19 A301 RMK A01 T02200189  RH  087%=      5-min Rain = 0
KLES 101055Z 31004KT 22/19 A301 RMK A01 T02200189  RH  087%=      5-min Rain = 0
KLES 101100Z 30004KT 22/19 A3011 RMK A01 T02190188  RH  087%=      5-min Rain = 0
KLES 101105Z 30004KT 22/19 A3011 RMK A01 T02190185  RH  085%=      5-min Rain = 0
KLES 101110Z 30003KT 22/19 A3011 RMK A01 T02200185  RH  085%=      5-min Rain = 0
KLES 101115Z 29002KT 22/19 A3011 RMK A01 T02210185  RH  085%=      5-min Rain = 0
KLES 101120Z 31002KT 22/19 A3011 RMK A01 T02220186  RH  085%=      5-min Rain = 0
KLES 101125Z 31003KT 22/19 A3011 RMK A01 T02200186  RH  085%=      5-min Rain = 0
KLES 101130Z 31004KT 22/19 A3011 RMK A01 T02200185  RH  085%=      5-min Rain = 0
KLES 101135Z 32004KT 22/19 A3011 RMK A01 T02200186  RH  085%=      5-min Rain = 0
KLES 101140Z 33004KT 22/19 A3012 RMK A01 T02200186  RH  085%=      5-min Rain = 0
KLES 101145Z 32003KT 22/18 A3012 RMK A01 T02180183  RH  085%=      5-min Rain = 0
KLES 101150Z 31002KT 22/18 A3012 RMK A01 T02190183  RH  084%=      5-min Rain = 0
KLES 101155Z 30000KT 22/18 A3012 RMK A01 T02210184  RH  084%=      5-min Rain = 0
KLES 101200Z 31001KT 22/19 A3012 RMK A01 T02220185  RH  084%=      5-min Rain = 0
KLES 101205Z 30002KT 22/18 A3012 RMK A01 T02220184  RH  083%=      5-min Rain = 0
KLES 101210Z 31003KT 22/19 A3012 RMK A01 T02230185  RH  084%=      5-min Rain = 0
KLES 101215Z 32003KT 22/19 A3012 RMK A01 T02230186  RH  084%=      5-min Rain = 0
KLES 101220Z 33002KT 22/19 A3012 RMK A01 T02220186  RH  085%=      5-min Rain = 0
KLES 101225Z 32002KT 22/19 A3012 RMK A01 T02210186  RH  085%=      5-min Rain = 0
KLES 101230Z 33003KT 22/19 A3013 RMK A01 T02210185  RH  085%=      5-min Rain = 0
KLES 101235Z 34004KT 22/19 A3013 RMK A01 T02210186  RH  085%=      5-min Rain = 0
KLES 101240Z 33004KT 22/18 A3013 RMK A01 T02200183  RH  084%=      5-min Rain = 0
KLES 101245Z 31004KT 22/18 A3013 RMK A01 T02220181  RH  082%=      5-min Rain = 0
KLES 101250Z 32003KT 22/18 A3014 RMK A01 T02230181  RH  081%=      5-min Rain = 0
KLES 101255Z 33003KT 22/18 A3014 RMK A01 T02240180  RH  081%=      5-min Rain = 0
KLES 101300Z 33001KT 22/18 A3015 RMK A01 T02240180  RH  080%=      5-min Rain = 0
KLES 101305Z 13001KT 23/18 A3015 RMK A01 T02250181  RH  080%=      5-min Rain = 0
KLES 101310Z 14005KT 23/19 A3015 RMK A01 T02260185  RH  082%=      5-min Rain = 0
KLES 101315Z 13003KT 22/19 A3015 RMK A01 T02240187  RH  084%=      5-min Rain = 0
KLES 101320Z 13003KT 22/19 A3015 RMK A01 T02230188  RH  085%=      5-min Rain = 0
KLES 101325Z 15002KT 23/19 A3015 RMK A01 T02250188  RH  085%=      5-min Rain = 0
KLES 101330Z 11000KT 23/19 A3015 RMK A01 T02250187  RH  084%=      5-min Rain = 0
KLES 101335Z 17001KT 23/19 A3015 RMK A01 T02250188  RH  084%=      5-min Rain = 0
KLES 101340Z 11002KT 23/19 A3015 RMK A01 T02260190  RH  084%=      5-min Rain = 0
KLES 101345Z 09002KT 23/19 A3015 RMK A01 T02270191  RH  085%=      5-min Rain = 0
KLES 101350Z 09000KT 23/19 A3015 RMK A01 T02270190  RH  084%=      5-min Rain = 0
KLES 101355Z 00000KT 23/19 A3015 RMK A01 T02280190  RH  084%=      5-min Rain = 0
KLES 101400Z 09001KT 23/19 A3015 RMK A01 T02290188  RH  082%=      5-min Rain = 0
KLES 101405Z 00000KT 23/19 A3015 RMK A01 T02300186  RH  080%=      5-min Rain = 0
KLES 101410Z 18003KT 23/19 A3015 RMK A01 T02330189  RH  081%=      5-min Rain = 0
KLES 101415Z 17004KT 23/19 A3015 RMK A01 T02330194  RH  083%=      5-min Rain = 0
KLES 101420Z 15001KT 23/19 A3015 RMK A01 T02310192  RH  083%=      5-min Rain = 0
KLES 101425Z 14000KT 23/19 A3015 RMK A01 T02320190  RH  082%=      5-min Rain = 0
KLES 101430Z 17002KT 24/19 A3015 RMK A01 T02350190  RH  080%=      5-min Rain = 0
KLES 101435Z 17003KT 24/19 A3015 RMK A01 T02360190  RH  079%=      5-min Rain = 0
KLES 101440Z 17002KT 24/19 A3015 RMK A01 T02360186  RH  077%=      5-min Rain = 0
KLES 101445Z 18003KT 24/19 A3015 RMK A01 T02410194  RH  079%=      5-min Rain = 0
KLES 101450Z 18003KT 24/19 A3016 RMK A01 T02400189  RH  077%=      5-min Rain = 0
KLES 101455Z 19002KT 24/18 A3016 RMK A01 T02420184  RH  074%=      5-min Rain = 0
KLES 101500Z 20002KT 25/19 A3016 RMK A01 T02460185  RH  073%=      5-min Rain = 0
KLES 101505Z 19002KT 25/19 A3016 RMK A01 T02490190  RH  073%=      5-min Rain = 0
KLES 101510Z 25003KT 25/19 A3016 RMK A01 T02480187  RH  073%=      5-min Rain = 0
KLES 101515Z 28003KT 25/18 A3016 RMK A01 T02490180  RH  069%=      5-min Rain = 0
KLES 101520Z 28002KT 25/18 A3016 RMK A01 T02520182  RH  069%=      5-min Rain = 0
KLES 101525Z 27002KT 25/18 A3016 RMK A01 T02520184  RH  069%=      5-min Rain = 0
KLES 101530Z 28003KT 25/18 A3016 RMK A01 T02510179  RH  068%=      5-min Rain = 0
KLES 101535Z 27002KT 25/18 A3016 RMK A01 T02530182  RH  068%=      5-min Rain = 0
KLES 101540Z 26003KT 25/18 A3016 RMK A01 T02520181  RH  068%=      5-min Rain = 0
KLES 101545Z 26002KT 25/18 A3016 RMK A01 T02530182  RH  068%=      5-min Rain = 0
KLES 101550Z 27002KT 25/18 A3016 RMK A01 T02540182  RH  068%=      5-min Rain = 0
KLES 101555Z 26003KT 26/18 A3016 RMK A01 T02550182  RH  068%=      5-min Rain = 0
KLES 101600Z 27004KT 26/18 A3016 RMK A01 T02590184  RH  067%=      5-min Rain = 0
KLES 101605Z 27004KT 26/19 A3016 RMK A01 T02630185  RH  066%=      5-min Rain = 0
KLES 101610Z 28005KT 26/19 A3016 RMK A01 T02640187  RH  066%=      5-min Rain = 0
KLES 101615Z 28004KT 27/19 A3016 RMK A01 T02660188  RH  066%=      5-min Rain = 0
KLES 101620Z 28005KT 27/19 A3016 RMK A01 T02650185  RH  065%=      5-min Rain = 0
KLES 101625Z 29005KT 26/19 A3016 RMK A01 T02640185  RH  065%=      5-min Rain = 0
KLES 101630Z 29005KT 26/18 A3016 RMK A01 T02640181  RH  064%=      5-min Rain = 0
KLES 101635Z 30003KT 27/18 A3016 RMK A01 T02670182  RH  063%=      5-min Rain = 0
KLES 101640Z 28003KT 27/18 A3016 RMK A01 T02680183  RH  063%=      5-min Rain = 0
KLES 101645Z 27004KT 27/18 A3016 RMK A01 T02720181  RH  061%=      5-min Rain = 0
KLES 101650Z 28002KT 27/18 A3016 RMK A01 T02720182  RH  061%=      5-min Rain = 0
KLES 101655Z 30005KT 28/17 A3016 RMK A01 T02750172  RH  056%=      5-min Rain = 0
KLES 101700Z 29006KT 28/17 A3016 RMK A01 T02750171  RH  056%=      5-min Rain = 0
KLES 101705Z 29006KT 27/17 A3016 RMK A01 T02730168  RH  055%=      5-min Rain = 0
KLES 101710Z 29004KT 27/17 A3016 RMK A01 T02740169  RH  056%=      5-min Rain = 0
KLES 101715Z 27005KT 28/17 A3015 RMK A01 T02760166  RH  054%=      5-min Rain = 0
KLES 101720Z 28007KT 28/17 A3015 RMK A01 T02780170  RH  054%=      5-min Rain = 0
KLES 101725Z 28007KT 28/17 A3015 RMK A01 T02760170  RH  055%=      5-min Rain = 0
KLES 101730Z 29006G11KT 28/17 A3015 RMK A01 T02810170  RH  054%=      5-min Rain = 0
KLES 101735Z 29009KT 28/17 A3015 RMK A01 T02810174  RH  055%=      5-min Rain = 0
KLES 101740Z 30007KT 28/18 A3014 RMK A01 T02840175  RH  054%=      5-min Rain = 0
KLES 101745Z 29007KT 28/18 A3014 RMK A01 T02840176  RH  055%=      5-min Rain = 0
KLES 101750Z 34006G12KT 29/18 A3014 RMK A01 T02870177  RH  054%=      5-min Rain = 0
KLES 101755Z 30008G13KT 29/18 A3014 RMK A01 T02860176  RH  054%=      5-min Rain = 0
KLES 101800Z 29011G17KT 28/18 A3013 RMK A01 T02840177  RH  055%=      5-min Rain = 0
KLES 101805Z 28010KT 28/18 A3013 RMK A01 T02840175  RH  054%=      5-min Rain = 0
KLES 101810Z 30009G15KT 28/17 A3013 RMK A01 T02820171  RH  053%=      5-min Rain = 0
KLES 101815Z 29010KT 28/18 A3013 RMK A01 T02810175  RH  055%=      5-min Rain = 0
KLES 101820Z 29006KT 28/18 A3012 RMK A01 T02780176  RH  057%=      5-min Rain = 0
KLES 101825Z 30009KT 28/17 A3012 RMK A01 T02800173  RH  055%=      5-min Rain = 0
KLES 101830Z 32009KT 28/17 A3012 RMK A01 T02800172  RH  055%=      5-min Rain = 0
KLES 101835Z 31008KT 28/17 A3012 RMK A01 T02810170  RH  054%=      5-min Rain = 0
KLES 101840Z 31007KT 28/17 A3012 RMK A01 T02800172  RH  055%=      5-min Rain = 0
KLES 101845Z 30011KT 28/17 A3012 RMK A01 T02820173  RH  054%=      5-min Rain = 0
KLES 101850Z 30009KT 28/17 A3012 RMK A01 T02810172  RH  054%=      5-min Rain = 0
KLES 101855Z 31011KT 28/17 A3012 RMK A01 T02820170  RH  053%=      5-min Rain = 0
KLES 101900Z 30009KT 28/17 A3012 RMK A01 T02820169  RH  053%=      5-min Rain = 0
KLES 101905Z 30009G14KT 28/17 A3012 RMK A01 T02830169  RH  053%=      5-min Rain = 0
KLES 101910Z 31010G15KT 29/17 A3012 RMK A01 T02850168  RH  052%=      5-min Rain = 0
KLES 101915Z 32009KT 29/17 A3011 RMK A01 T02850165  RH  050%=      5-min Rain = 0
KLES 101920Z 32007G13KT 29/16 A3011 RMK A01 T02860164  RH  050%=      5-min Rain = 0
KLES 101925Z 30011KT 28/16 A301 RMK A01 T02840163  RH  050%=      5-min Rain = 0
KLES 101930Z 30011KT 28/16 A301 RMK A01 T02830162  RH  050%=      5-min Rain = 0
KLES 101935Z 33010KT 29/16 A301 RMK A01 T02930164  RH  048%=      5-min Rain = 0
KLES 101940Z 33009G14KT 30/16 A301 RMK A01 T03030161  RH  045%=      5-min Rain = 0
KLES 101945Z 33009G14KT 30/16 A301 RMK A01 T03040162  RH  045%=      5-min Rain = 0
KLES 101950Z 34009G14KT 30/16 A3009 RMK A01 T03000164  RH  046%=      5-min Rain = 0
KLES 101955Z 32008G13KT 30/16 A3009 RMK A01 T03010162  RH  045%=      5-min Rain = 0
KLES 102000Z 34008G13KT 30/16 A3009 RMK A01 T03000161  RH  045%=      5-min Rain = 0
KLES 102005Z 34007KT 30/16 A3008 RMK A01 T03000161  RH  045%=      5-min Rain = 0
KLES 102010Z 33008KT 30/16 A3008 RMK A01 T03040159  RH  044%=      5-min Rain = 0
KLES 102015Z 34007G12KT 31/16 A3008 RMK A01 T03060158  RH  043%=      5-min Rain = 0
KLES 102020Z 34007G14KT 31/15 A3008 RMK A01 T03070154  RH  041%=      5-min Rain = 0
KLES 102025Z 01008KT 31/15 A3008 RMK A01 T03070154  RH  041%=      5-min Rain = 0
KLES 102030Z 36008KT 31/15 A3008 RMK A01 T03050150  RH  041%=      5-min Rain = 0
KLES 102035Z 33006G11KT 30/16 A3008 RMK A01 T03020156  RH  043%=      5-min Rain = 0
KLES 102040Z 02008KT 30/16 A3008 RMK A01 T03030157  RH  043%=      5-min Rain = 0
KLES 102045Z 01007KT 30/16 A3008 RMK A01 T02990156  RH  044%=      5-min Rain = 0
KLES 102050Z 01006KT 30/16 A3008 RMK A01 T03010156  RH  044%=      5-min Rain = 0
KLES 102055Z 09012G17KT 29/16 A3009 RMK A01 T02900159  RH  047%=      5-min Rain = 0
KLES 102100Z 08016G24KT 27/16 A3009 RMK A01 T02670160  RH  054%=      5-min Rain = 0
KLES 102105Z 10018G24KT 26/16 A3009 RMK A01 T02610159  RH  056%=      5-min Rain = 0
KLES 102110Z 11016G22KT 26/15 A301 RMK A01 T02550147  RH  054%=      5-min Rain = 0
KLES 102115Z 11014KT 26/15 A301 RMK A01 T02580150  RH  053%=      5-min Rain = 0
KLES 102120Z 12016G21KT 26/15 A301 RMK A01 T02580147  RH  053%=      5-min Rain = 0
KLES 102125Z 11014G20KT 26/15 A3009 RMK A01 T02590145  RH  052%=      5-min Rain = 0
KLES 102130Z 13014KT 26/14 A3009 RMK A01 T02590141  RH  050%=      5-min Rain = 0
KLES 102135Z 13012G17KT 26/15 A3009 RMK A01 T02610150  RH  053%=      5-min Rain = 0
KLES 102140Z 14014G19KT 27/15 A3009 RMK A01 T02650152  RH  052%=      5-min Rain = 0
KLES 102145Z 15016G21KT 27/15 A3009 RMK A01 T02650146  RH  050%=      5-min Rain = 0
KLES 102150Z 14013G20KT 27/16 A3008 RMK A01 T02710159  RH  053%=      5-min Rain = 0
KLES 102155Z 15014G20KT 27/17 A3009 RMK A01 T02680169  RH  058%=      5-min Rain = 0
KLES 102200Z 15016KT 26/18 A3009 RMK A01 T02580177  RH  064%=      5-min Rain = 0
KLES 102205Z 14014KT 25/18 A3009 RMK A01 T02540176  RH  065%=      5-min Rain = 0
KLES 102210Z 15014KT 25/17 A3009 RMK A01 T02520173  RH  065%=      5-min Rain = 0
KLES 102215Z 14013KT 25/17 A3009 RMK A01 T02500173  RH  065%=      5-min Rain = 0
KLES 102220Z 15013KT 25/17 A3008 RMK A01 T02490172  RH  066%=      5-min Rain = 0
KLES 102225Z 15010KT 25/17 A3008 RMK A01 T02500172  RH  065%=      5-min Rain = 0
KLES 102230Z 14011KT 25/17 A3008 RMK A01 T02520170  RH  064%=      5-min Rain = 0
KLES 102235Z 15011KT 25/17 A3008 RMK A01 T02520171  RH  064%=      5-min Rain = 0
KLES 102240Z 16010KT 25/17 A3008 RMK A01 T02510171  RH  064%=      5-min Rain = 0
KLES 102245Z 15008KT 25/17 A3008 RMK A01 T02520171  RH  064%=      5-min Rain = 0
KLES 102250Z 15009KT 25/17 A3008 RMK A01 T02530170  RH  063%=      5-min Rain = 0
KLES 102255Z 15010KT 25/17 A3008 RMK A01 T02530166  RH  062%=      5-min Rain = 0
KLES 102300Z 16009KT 25/17 A3007 RMK A01 T02540167  RH  061%=      5-min Rain = 0
KLES 102305Z 17009KT 25/17 A3007 RMK A01 T02540168  RH  062%=      5-min Rain = 0
KLES 102310Z 17009KT 25/17 A3006 RMK A01 T02530171  RH  063%=      5-min Rain = 0
KLES 102315Z 17008KT 26/17 A3007 RMK A01 T02550169  RH  062%=      5-min Rain = 0
KLES 102320Z 17007KT 26/17 A3006 RMK A01 T02580169  RH  061%=      5-min Rain = 0
KLES 102325Z 18007KT 26/17 A3006 RMK A01 T02570165  RH  059%=      5-min Rain = 0
KLES 102330Z 18007KT 26/17 A3006 RMK A01 T02600166  RH  059%=      5-min Rain = 0
KLES 102335Z 18009KT 26/16 A3006 RMK A01 T02640163  RH  056%=      5-min Rain = 0
KLES 102340Z 18006KT 26/16 A3006 RMK A01 T02630164  RH  057%=      5-min Rain = 0
KLES 102345Z 18007KT 26/16 A3007 RMK A01 T02600163  RH  058%=      5-min Rain = 0
KLES 102350Z 17006KT 26/16 A3007 RMK A01 T02600162  RH  058%=      5-min Rain = 0
KLES 102355Z 15005KT 26/16 A3007 RMK A01 T02600160  RH  057%=      5-min Rain = 0
KLES 110000Z 13006KT 26/16 A3007 RMK A01 T02620157  RH  055%=      5-min Rain = 0
KLES 110005Z 13005KT 26/16 A3008 RMK A01 T02620158  RH  055%=      5-min Rain = 0
KLES 110010Z 14006KT 26/16 A3008 RMK A01 T02610155  RH  054%=      5-min Rain = 0
KLES 110015Z 14005KT 26/16 A3009 RMK A01 T02610156  RH  055%=      5-min Rain = 0
KLES 110020Z 33005G16KT 26/16 A301 RMK A01 T02610157  RH  055%=      5-min Rain = 0
KLES 110025Z 31014G20KT 25/16 A3011 RMK A01 T02460160  RH  061%=      5-min Rain = 0
KLES 110030Z 33021G29KT 23/16 A3011 RMK A01 T02320157  RH  066%=      5-min Rain = 0
KLES 110035Z 33019G30KT 23/16 A3012 RMK A01 T02250160  RH  070%=      5-min Rain = 0
KLES 110040Z 33019G27KT 22/16 A3013 RMK A01 T02170164  RH  075%=      5-min Rain = 0
KLES 110045Z 33018G27KT 21/17 A3013 RMK A01 T02070167  RH  082%=      5-min Rain = 0.05
KLES 110050Z 32017G24KT 20/16 A3012 RMK A01 T01950164  RH  086%=      5-min Rain = 0.07
KLES 110055Z 31020G28KT 19/16 A3011 RMK A01 T01890161  RH  087%=      5-min Rain = 0.05
KLES 110100Z 31013G21KT 19/16 A3011 RMK A01 T01860156  RH  087%=      5-min Rain = 0.05
KLES 110105Z 28013KT 19/16 A3012 RMK A01 T01860161  RH  090%=      5-min Rain = 0.04
KLES 110110Z 27013G18KT 19/16 A3011 RMK A01 T01850162  RH  091%=      5-min Rain = 0.03
KLES 110115Z 27012KT 18/16 A3011 RMK A01 T01840161  RH  091%=      5-min Rain = 0.01
KLES 110120Z 26011KT 19/16 A301 RMK A01 T01870160  RH  088%=      5-min Rain = 0
KLES 110125Z 26010KT 19/16 A301 RMK A01 T01900161  RH  087%=      5-min Rain = 0
KLES 110130Z 27011KT 19/16 A301 RMK A01 T01930161  RH  085%=      5-min Rain = 0
KLES 110135Z 26009KT 20/16 A3009 RMK A01 T01980164  RH  085%=      5-min Rain = 0
KLES 110140Z 25010KT 20/17 A3009 RMK A01 T02000165  RH  084%=      5-min Rain = 0
KLES 110145Z 24009KT 20/17 A301 RMK A01 T02020167  RH  084%=      5-min Rain = 0
KLES 110150Z 23009KT 20/17 A301 RMK A01 T02020169  RH  085%=      5-min Rain = 0
KLES 110155Z 23011KT 20/17 A301 RMK A01 T02000168  RH  086%=      5-min Rain = 0.01
KLES 110200Z 24011KT 20/17 A301 RMK A01 T01990169  RH  087%=      5-min Rain = 0.01
KLES 110205Z 24011KT 20/17 A301 RMK A01 T01990169  RH  087%=      5-min Rain = 0.01
KLES 110210Z 23011KT 20/17 A3009 RMK A01 T01980165  RH  086%=      5-min Rain = 0
KLES 110215Z 22011KT 20/16 A3009 RMK A01 T01980163  RH  084%=      5-min Rain = 0.01
KLES 110220Z 22011KT 20/16 A3008 RMK A01 T01990162  RH  083%=      5-min Rain = 0
KLES 110225Z 22009KT 20/16 A3008 RMK A01 T02000162  RH  082%=      5-min Rain = 0
KLES 110230Z 21010KT 20/16 A3008 RMK A01 T02000159  RH  081%=      5-min Rain = 0
KLES 110235Z 21009KT 20/16 A3008 RMK A01 T02010162  RH  082%=      5-min Rain = 0
KLES 110240Z 21010KT 20/17 A3007 RMK A01 T02020166  RH  084%=      5-min Rain = 0
KLES 110245Z 20009KT 20/17 A3007 RMK A01 T02020171  RH  087%=      5-min Rain = 0
KLES 110250Z 19008KT 20/17 A3008 RMK A01 T02020172  RH  088%=      5-min Rain = 0.01
KLES 110255Z 20009KT 20/17 A3008 RMK A01 T02010172  RH  088%=      5-min Rain = 0
KLES 110300Z 19008KT 20/17 A3008 RMK A01 T02000172  RH  088%=      5-min Rain = 0
KLES 110305Z 19007KT 20/17 A3008 RMK A01 T01990172  RH  088%=      5-min Rain = 0
KLES 110310Z 20007KT 20/17 A3009 RMK A01 T01990171  RH  088%=      5-min Rain = 0
KLES 110315Z 24004KT 20/17 A3009 RMK A01 T01990170  RH  088%=      5-min Rain = 0.01
KLES 110320Z 33008KT 20/17 A3011 RMK A01 T02000172  RH  088%=      5-min Rain = 0
KLES 110325Z 32007KT 20/17 A3011 RMK A01 T01990172  RH  089%=      5-min Rain = 0.01
KLES 110330Z 32007KT 20/17 A3012 RMK A01 T01980173  RH  090%=      5-min Rain = 0.01
KLES 110335Z 32007KT 20/17 A3012 RMK A01 T01970174  RH  091%=      5-min Rain = 0
KLES 110340Z 31007KT 20/17 A3012 RMK A01 T01970174  RH  091%=      5-min Rain = 0.01
KLES 110345Z 32005KT 20/17 A3013 RMK A01 T01950172  RH  091%=      5-min Rain = 0
KLES 110350Z 27004KT 20/17 A3012 RMK A01 T01950172  RH  091%=      5-min Rain = 0
KLES 110355Z 28006KT 20/17 A3013 RMK A01 T01950171  RH  090%=      5-min Rain = 0.01
KLES 110400Z 29005KT 20/17 A3013 RMK A01 T01980173  RH  090%=      5-min Rain = 0
KLES 110405Z 29003KT 20/17 A3013 RMK A01 T01990174  RH  090%=      5-min Rain = 0
KLES 110410Z 33002KT 20/18 A3013 RMK A01 T01990175  RH  090%=      5-min Rain = 0.01
KLES 110415Z 01000KT 20/18 A3013 RMK A01 T01990175  RH  091%=      5-min Rain = 0
KLES 110420Z 23000KT 20/18 A3013 RMK A01 T01990175  RH  091%=      5-min Rain = 0
KLES 110425Z 26003KT 20/18 A3013 RMK A01 T01990176  RH  091%=      5-min Rain = 0
KLES 110430Z 27004KT 20/17 A3013 RMK A01 T01980173  RH  090%=      5-min Rain = 0.01
KLES 110435Z 27005KT 20/17 A3013 RMK A01 T01980171  RH  089%=      5-min Rain = 0
KLES 110440Z 28007KT 20/17 A3012 RMK A01 T01990171  RH  088%=      5-min Rain = 0
KLES 110445Z 28007KT 20/17 A3012 RMK A01 T01990169  RH  087%=      5-min Rain = 0
KLES 110450Z 28006KT 20/17 A3012 RMK A01 T01990168  RH  086%=      5-min Rain = 0
KLES 110455Z 29006KT 20/17 A3012 RMK A01 T01990169  RH  087%=      5-min Rain = 0
KLES 110500Z 29005KT 20/17 A3012 RMK A01 T01990170  RH  087%=      5-min Rain = 0

Page generated in 0.0097 seconds.